createdAt,value
2023-01-10T00:00:37.727Z,-2.40
2023-01-10T00:03:07.747Z,-2.33
2023-01-10T00:05:35.942Z,-2.30
2023-01-10T00:08:03.667Z,-2.32
2023-01-10T00:10:31.733Z,-2.34
2023-01-10T00:13:17.102Z,-2.32
2023-01-10T00:15:44.443Z,-2.34
2023-01-10T00:18:11.751Z,-2.43
2023-01-10T00:20:38.564Z,-2.31
2023-01-10T00:23:05.670Z,-2.30
2023-01-10T00:25:34.336Z,-2.30
2023-01-10T00:28:20.231Z,-2.30
2023-01-10T00:30:55.187Z,-2.30
2023-01-10T00:33:22.687Z,-2.39
2023-01-10T00:35:49.655Z,-2.29
2023-01-10T00:38:16.934Z,-2.30
2023-01-10T00:40:43.701Z,-2.29
2023-01-10T00:43:29.316Z,-2.39
2023-01-10T00:45:57.512Z,-2.32
2023-01-10T00:48:24.745Z,-2.28
2023-01-10T00:50:51.519Z,-2.28
2023-01-10T00:53:18.163Z,-2.31
2023-01-10T00:55:45.308Z,-2.29
2023-01-10T00:58:14.206Z,-2.40
2023-01-10T01:00:41.974Z,-2.28
2023-01-10T01:03:09.051Z,-2.27
2023-01-10T01:05:43.350Z,-2.31
2023-01-10T01:08:11.822Z,-2.28
2023-01-10T01:10:38.519Z,-2.27
2023-01-10T01:13:10.258Z,-2.29
2023-01-10T01:15:37.292Z,-2.37
2023-01-10T01:18:05.187Z,-2.28
2023-01-10T01:20:32.720Z,-2.38
2023-01-10T01:23:00.790Z,-2.32
2023-01-10T01:25:27.465Z,-2.31
2023-01-10T01:27:54.299Z,-2.32
2023-01-10T01:30:21.344Z,-2.41
2023-01-10T01:32:48.085Z,-2.32
2023-01-10T01:35:16.495Z,-2.33
2023-01-10T01:37:44.288Z,-2.40
2023-01-10T01:40:14.848Z,-2.33
2023-01-10T01:42:43.916Z,-2.32
2023-01-10T01:45:22.779Z,-2.34
2023-01-10T01:47:58.351Z,-2.40
2023-01-10T01:50:37.684Z,-2.41
2023-01-10T01:53:11.889Z,-2.31
2023-01-10T01:55:39.915Z,-2.33
2023-01-10T01:58:10.967Z,-2.35
2023-01-10T02:00:37.619Z,-2.37
2023-01-10T02:03:06.007Z,-2.38
2023-01-10T02:05:35.450Z,-2.49
2023-01-10T02:08:02.592Z,-2.39
2023-01-10T02:10:41.201Z,-2.41
2023-01-10T02:13:11.374Z,-2.40
2023-01-10T02:15:38.176Z,-2.50
2023-01-10T02:18:05.312Z,-2.42
2023-01-10T02:20:48.038Z,-2.45
2023-01-10T02:23:29.738Z,-2.46
2023-01-10T02:26:11.693Z,-2.48
2023-01-10T02:29:13.555Z,-2.51
2023-01-10T02:32:05.499Z,-2.55
2023-01-10T02:34:51.374Z,-2.52
2023-01-10T02:37:49.347Z,-2.53
2023-01-10T02:40:41.283Z,-2.53
2023-01-10T02:43:13.461Z,-2.63
2023-01-10T02:45:47.283Z,-2.55
2023-01-10T02:48:17.510Z,-2.65
2023-01-10T02:50:47.321Z,-2.55
2023-01-10T02:53:24.918Z,-2.54
2023-01-10T02:56:18.607Z,-2.54
2023-01-10T02:59:10.311Z,-2.53
2023-01-10T03:01:58.183Z,-2.61
2023-01-10T03:04:37.305Z,-2.58
2023-01-10T03:07:19.984Z,-2.60
2023-01-10T03:09:55.853Z,-2.69
2023-01-10T03:12:32.245Z,-2.63
2023-01-10T03:15:00.690Z,-2.64
2023-01-10T03:17:30.602Z,-2.69
2023-01-10T03:20:02.617Z,-2.68
2023-01-10T03:22:31.927Z,-2.71
2023-01-10T03:25:01.384Z,-2.72
2023-01-10T03:27:52.069Z,-2.86
2023-01-10T03:30:44.821Z,-2.78
2023-01-10T03:33:12.725Z,-2.82
2023-01-10T03:35:51.100Z,-2.84
2023-01-10T03:38:50.221Z,-2.97
2023-01-10T03:41:42.547Z,-2.93
2023-01-10T03:44:43.190Z,-2.97
2023-01-10T03:47:24.381Z,-3.01
2023-01-10T03:49:56.454Z,-3.10
2023-01-10T03:52:25.229Z,-3.03
2023-01-10T03:54:52.076Z,-3.06
2023-01-10T03:57:22.924Z,-3.07
2023-01-10T03:59:58.344Z,-3.09
2023-01-10T04:02:30.665Z,-3.23
2023-01-10T04:04:59.087Z,-3.18
2023-01-10T04:07:26.792Z,-3.22
2023-01-10T04:09:54.378Z,-3.25
2023-01-10T04:12:21.407Z,-3.28
2023-01-10T04:14:48.260Z,-3.42
2023-01-10T04:17:16.569Z,-3.42
2023-01-10T04:19:43.839Z,-3.34
2023-01-10T04:22:11.651Z,-3.35
2023-01-10T04:24:39.128Z,-3.37
2023-01-10T04:27:06.632Z,-3.37
2023-01-10T04:29:33.400Z,-3.39
2023-01-10T04:32:01.081Z,-3.40
2023-01-10T04:34:29.204Z,-3.40
2023-01-10T04:36:55.885Z,-3.40
2023-01-10T04:39:22.497Z,-3.46
2023-01-10T04:41:49.902Z,-3.39
2023-01-10T04:44:16.749Z,-3.41
2023-01-10T04:46:43.397Z,-3.41
2023-01-10T04:49:10.650Z,-3.42
2023-01-10T04:51:37.454Z,-3.48
2023-01-10T04:54:04.233Z,-3.51
2023-01-10T04:56:31.171Z,-3.65
2023-01-10T04:58:57.875Z,-3.63
2023-01-10T05:01:25.752Z,-3.63
2023-01-10T05:03:55.151Z,-3.66
2023-01-10T05:06:23.455Z,-3.71
2023-01-10T05:08:50.209Z,-3.76
2023-01-10T05:11:17.179Z,-3.80
2023-01-10T05:13:44.005Z,-3.82
2023-01-10T05:16:10.735Z,-3.84
2023-01-10T05:18:37.758Z,-3.88
2023-01-10T05:21:07.764Z,-3.92
2023-01-10T05:23:34.430Z,-3.92
2023-01-10T05:26:16.061Z,-3.95
2023-01-10T05:28:43.358Z,-3.96
2023-01-10T05:31:13.309Z,-4.00
2023-01-10T05:33:43.498Z,-4.04
2023-01-10T05:36:10.489Z,-4.10
2023-01-10T05:38:37.259Z,-4.19
2023-01-10T05:41:04.011Z,-4.40
2023-01-10T05:43:30.985Z,-4.41
2023-01-10T05:45:57.871Z,-4.46
2023-01-10T05:48:24.550Z,-4.50
2023-01-10T05:50:52.865Z,-4.54
2023-01-10T05:53:20.117Z,-4.60
2023-01-10T05:55:58.217Z,-4.66
2023-01-10T05:58:25.983Z,-4.78
2023-01-10T06:00:54.515Z,-4.73
2023-01-10T06:03:21.850Z,-4.80
2023-01-10T06:05:49.162Z,-5.01
2023-01-10T06:08:16.362Z,-4.99
2023-01-10T06:10:43.869Z,-5.14
2023-01-10T06:13:12.162Z,-5.21
2023-01-10T06:15:39.127Z,-5.26
2023-01-10T06:18:12.125Z,-5.36
2023-01-10T06:20:39.711Z,-5.32
2023-01-10T06:23:06.926Z,-5.39
2023-01-10T06:25:36.961Z,-5.42
2023-01-10T06:28:04.255Z,-5.48
2023-01-10T06:30:31.220Z,-5.54
2023-01-10T06:33:05.515Z,-5.73
2023-01-10T06:35:32.621Z,-5.78
2023-01-10T06:37:59.550Z,-5.92
2023-01-10T06:40:26.894Z,-5.93
2023-01-10T06:42:53.914Z,-6.02
2023-01-10T06:45:20.963Z,-6.11
2023-01-10T06:47:47.634Z,-6.26
2023-01-10T06:50:14.558Z,-6.30
2023-01-10T06:52:42.060Z,-6.18
2023-01-10T06:55:08.808Z,-6.19
2023-01-10T06:57:35.730Z,-6.24
2023-01-10T07:00:04.834Z,-6.25
2023-01-10T07:02:31.709Z,-6.28
2023-01-10T07:04:58.594Z,-6.29
2023-01-10T07:07:25.252Z,-6.34
2023-01-10T07:09:51.896Z,-6.36
2023-01-10T07:12:18.896Z,-6.38
2023-01-10T07:14:45.557Z,-6.48
2023-01-10T07:17:12.172Z,-6.39
2023-01-10T07:19:39.054Z,-6.47
2023-01-10T07:22:05.873Z,-6.49
2023-01-10T07:24:32.486Z,-6.44
2023-01-10T07:26:59.362Z,-6.51
2023-01-10T07:29:25.984Z,-6.51
2023-01-10T07:31:52.639Z,-6.39
2023-01-10T07:34:19.603Z,-6.38
2023-01-10T07:36:46.261Z,-6.50
2023-01-10T07:39:12.949Z,-6.38
2023-01-10T07:41:40.083Z,-6.38
2023-01-10T07:44:06.869Z,-6.35
2023-01-10T07:46:33.584Z,-6.34
2023-01-10T07:49:00.643Z,-6.32
2023-01-10T07:51:27.322Z,-6.33
2023-01-10T07:53:53.930Z,-6.32
2023-01-10T07:56:21.068Z,-6.36
2023-01-10T07:58:47.714Z,-6.37
2023-01-10T08:01:14.573Z,-6.40
2023-01-10T08:03:41.577Z,-6.51
2023-01-10T08:06:13.149Z,-6.39
2023-01-10T08:08:40.466Z,-6.37
2023-01-10T08:11:07.883Z,-6.42
2023-01-10T08:13:34.654Z,-6.36
2023-01-10T08:16:06.056Z,-6.34
2023-01-10T08:18:33.574Z,-6.35
2023-01-10T08:21:00.949Z,-6.37
2023-01-10T08:23:28.053Z,-6.34
2023-01-10T08:25:58.969Z,-6.34
2023-01-10T08:28:25.626Z,-6.18
2023-01-10T08:30:55.774Z,-6.12
2023-01-10T08:33:23.950Z,-6.09
2023-01-10T08:35:51.593Z,-6.11
2023-01-10T08:38:18.510Z,-6.03
2023-01-10T08:40:45.558Z,-6.13
2023-01-10T08:43:13.054Z,-6.03
2023-01-10T08:45:39.863Z,-5.97
2023-01-10T08:48:09.322Z,-5.99
2023-01-10T08:50:36.187Z,-5.99
2023-01-10T08:53:03.082Z,-6.02
2023-01-10T08:55:31.223Z,-5.98
2023-01-10T08:58:01.676Z,-6.02
2023-01-10T09:00:28.983Z,-6.00
2023-01-10T09:02:56.051Z,-5.95
2023-01-10T09:05:27.495Z,-5.87
2023-01-10T09:08:03.736Z,-5.84
2023-01-10T09:10:30.887Z,-5.82
2023-01-10T09:13:01.367Z,-5.83
2023-01-10T09:15:36.282Z,-5.81
2023-01-10T09:18:05.893Z,-5.94
2023-01-10T09:20:34.928Z,-5.89
2023-01-10T09:23:17.537Z,-5.94
2023-01-10T09:25:45.349Z,-6.05
2023-01-10T09:28:12.061Z,-5.96
2023-01-10T09:30:38.823Z,-5.95
2023-01-10T09:33:06.863Z,-6.01
2023-01-10T09:35:36.639Z,-5.89
2023-01-10T09:38:04.923Z,-5.88
2023-01-10T09:40:51.015Z,-5.95
2023-01-10T09:43:44.454Z,-5.82
2023-01-10T09:46:28.291Z,-5.77
2023-01-10T09:49:08.961Z,-5.73
2023-01-10T09:51:45.126Z,-5.81
2023-01-10T09:54:20.489Z,-5.75
2023-01-10T09:56:47.810Z,-5.61
2023-01-10T09:59:24.804Z,-5.56
2023-01-10T10:02:17.491Z,-5.52
2023-01-10T10:04:57.768Z,-5.41
2023-01-10T10:07:24.677Z,-5.41
2023-01-10T10:09:51.595Z,-5.24
2023-01-10T10:12:47.346Z,-5.20
2023-01-10T10:15:46.230Z,-5.12
2023-01-10T10:18:29.701Z,-5.05
2023-01-10T10:21:18.076Z,-4.99
2023-01-10T10:24:09.574Z,-4.95
2023-01-10T13:41:35.667Z,-4.38
2023-01-10T13:44:15.159Z,-4.35
2023-01-10T13:46:47.630Z,-4.31
2023-01-10T13:49:14.605Z,-4.28
2023-01-10T13:52:39.846Z,-4.38
2023-01-10T13:55:22.178Z,-4.28
2023-01-10T13:57:54.989Z,-4.29
2023-01-10T14:01:05.720Z,-4.31
2023-01-10T14:03:52.900Z,-4.43
2023-01-10T14:06:28.784Z,-4.42
2023-01-10T14:09:14.638Z,-4.32
2023-01-10T14:11:54.480Z,-4.39
2023-01-10T14:14:29.063Z,-4.28
2023-01-10T14:17:12.693Z,-4.30
2023-01-10T14:19:41.141Z,-4.28
2023-01-10T14:22:24.767Z,-4.37
2023-01-10T14:24:53.878Z,-4.27
2023-01-10T14:27:22.742Z,-4.27
2023-01-10T14:30:01.993Z,-4.25
2023-01-10T14:32:38.325Z,-4.24
2023-01-10T14:35:08.329Z,-4.34
2023-01-10T14:37:44.231Z,-4.22
2023-01-10T14:40:43.243Z,-4.21
2023-01-10T14:43:15.925Z,-4.18
2023-01-10T14:46:01.224Z,-4.17
2023-01-10T14:48:32.584Z,-4.17
2023-01-10T14:51:21.746Z,-4.15
2023-01-10T14:53:57.499Z,-4.13
2023-01-10T14:56:28.206Z,-4.22
2023-01-10T14:58:55.274Z,-4.12
2023-01-10T15:01:30.492Z,-4.12
2023-01-10T15:03:57.651Z,-4.07
2023-01-10T15:06:26.064Z,-4.15
2023-01-10T15:08:58.453Z,-4.03
2023-01-10T15:11:27.571Z,-4.02
2023-01-10T15:14:00.130Z,-4.00
2023-01-10T15:16:28.725Z,-4.05
2023-01-10T15:18:56.706Z,-3.96
2023-01-10T15:21:24.445Z,-3.93
2023-01-10T15:23:51.758Z,-3.94
2023-01-10T15:26:29.128Z,-3.89
2023-01-10T15:29:23.477Z,-3.89
2023-01-10T15:31:52.201Z,-3.92
2023-01-10T15:34:22.653Z,-3.85
2023-01-10T15:36:53.727Z,-3.85
2023-01-10T15:39:24.015Z,-3.83
2023-01-10T15:41:57.983Z,-3.83
2023-01-10T15:44:45.074Z,-3.82
2023-01-10T15:47:41.370Z,-3.89
2023-01-10T15:50:29.672Z,-3.79
2023-01-10T15:53:02.315Z,-3.79
2023-01-10T15:55:36.042Z,-3.78
2023-01-10T15:58:03.170Z,-3.75
2023-01-10T16:00:30.431Z,-3.76
2023-01-10T16:02:57.904Z,-3.76
2023-01-10T16:05:24.734Z,-3.75
2023-01-10T16:07:51.711Z,-3.84
2023-01-10T16:10:24.497Z,-3.72
2023-01-10T16:13:10.000Z,-3.72
2023-01-10T16:15:40.829Z,-3.71
2023-01-10T16:18:07.811Z,-3.71
2023-01-10T16:20:41.401Z,-3.69
2023-01-10T16:23:16.148Z,-3.69
2023-01-10T16:25:47.088Z,-3.68
2023-01-10T16:28:16.595Z,-3.68
2023-01-10T16:30:46.807Z,-3.66
2023-01-10T16:33:19.341Z,-3.66
2023-01-10T16:35:48.049Z,-3.63
2023-01-10T16:38:15.833Z,-3.65
2023-01-10T16:40:46.807Z,-3.76
2023-01-10T16:43:21.842Z,-3.64
2023-01-10T16:45:52.067Z,-3.63
2023-01-10T16:48:20.856Z,-3.62
2023-01-10T16:50:48.805Z,-3.72
2023-01-10T16:53:18.377Z,-3.62
2023-01-10T16:55:53.039Z,-3.62
2023-01-10T16:58:21.028Z,-3.62
2023-01-10T17:00:50.286Z,-3.63
2023-01-10T17:03:20.395Z,-3.71
2023-01-10T17:05:47.194Z,-3.63
2023-01-10T17:08:20.534Z,-3.63
2023-01-10T17:10:51.010Z,-3.63
2023-01-10T17:13:27.245Z,-3.66
2023-01-10T17:15:53.978Z,-3.67
2023-01-10T17:18:20.991Z,-3.75
2023-01-10T17:20:47.633Z,-3.69
2023-01-10T17:23:15.708Z,-3.75
2023-01-10T17:25:42.973Z,-3.66
2023-01-10T17:28:12.142Z,-3.65
2023-01-10T17:30:40.384Z,-3.65
2023-01-10T17:33:10.983Z,-3.65
2023-01-10T17:35:41.609Z,-3.62
2023-01-10T17:38:13.984Z,-3.63
2023-01-10T17:40:44.463Z,-3.63
2023-01-10T17:43:12.414Z,-3.62
2023-01-10T17:45:43.218Z,-3.66
2023-01-10T17:48:13.057Z,-3.65
2023-01-10T17:50:40.321Z,-3.66
2023-01-10T17:53:06.939Z,-3.68
2023-01-10T17:55:33.662Z,-3.79
2023-01-10T17:58:02.796Z,-3.70
2023-01-10T18:00:30.412Z,-3.74
2023-01-10T18:02:57.494Z,-3.74
2023-01-10T18:05:24.152Z,-3.79
2023-01-10T18:07:50.792Z,-3.84
2023-01-10T18:10:18.205Z,-3.84
2023-01-10T18:12:45.608Z,-3.88
2023-01-10T18:15:12.251Z,-3.92
2023-01-10T18:17:39.331Z,-3.99
2023-01-10T18:20:06.913Z,-4.05
2023-01-10T18:22:52.022Z,-4.08
2023-01-10T18:25:19.395Z,-4.22
2023-01-10T18:27:50.297Z,-4.21
2023-01-10T18:30:22.200Z,-4.30
2023-01-10T18:32:49.885Z,-4.33
2023-01-10T18:35:16.691Z,-4.42
2023-01-10T18:37:43.536Z,-4.53
2023-01-10T18:40:11.596Z,-4.65
2023-01-10T18:42:38.496Z,-4.75
2023-01-10T18:45:06.467Z,-4.83
2023-01-10T18:47:33.883Z,-4.88
2023-01-10T18:50:00.600Z,-4.95
2023-01-10T18:52:27.456Z,-5.01
2023-01-10T18:54:54.469Z,-5.04
2023-01-10T18:57:21.118Z,-5.02
2023-01-10T18:59:47.788Z,-5.12
2023-01-10T19:02:15.645Z,-5.07
2023-01-10T19:04:42.634Z,-5.20
2023-01-10T19:07:09.435Z,-5.14
2023-01-10T19:09:36.455Z,-5.27
2023-01-10T19:12:03.307Z,-5.25
2023-01-10T19:14:29.992Z,-5.31
2023-01-10T19:16:56.940Z,-5.38
2023-01-10T19:19:23.746Z,-5.41
2023-01-10T19:21:50.444Z,-5.45
2023-01-10T19:24:27.541Z,-5.49
2023-01-10T19:26:55.333Z,-5.56
2023-01-10T19:29:23.228Z,-5.62
2023-01-10T19:31:50.229Z,-5.74
2023-01-10T19:34:17.554Z,-5.68
2023-01-10T19:36:45.547Z,-5.73
2023-01-10T19:39:13.149Z,-5.74
2023-01-10T19:41:41.025Z,-5.77
2023-01-10T19:44:12.397Z,-5.79
2023-01-10T19:46:40.604Z,-5.85
2023-01-10T19:49:13.268Z,-5.83
2023-01-10T19:51:41.160Z,-5.85
2023-01-10T19:54:08.727Z,-5.89
2023-01-10T19:56:35.850Z,-5.93
2023-01-10T19:59:03.448Z,-5.98
2023-01-10T20:01:31.597Z,-6.02
2023-01-10T20:04:03.395Z,-6.16
2023-01-10T20:06:32.616Z,-6.11
2023-01-10T20:08:59.574Z,-6.25
2023-01-10T20:11:36.729Z,-6.22
2023-01-10T20:14:05.758Z,-6.23
2023-01-10T20:16:32.502Z,-6.34
2023-01-10T20:18:59.253Z,-6.36
2023-01-10T20:21:26.251Z,-6.29
2023-01-10T20:23:52.948Z,-6.31
2023-01-10T20:26:22.625Z,-6.34
2023-01-10T20:28:50.638Z,-6.39
2023-01-10T20:31:21.253Z,-6.47
2023-01-10T20:33:48.692Z,-6.49
2023-01-10T20:36:18.205Z,-6.53
2023-01-10T20:38:45.089Z,-6.55
2023-01-10T20:41:20.754Z,-6.67
2023-01-10T20:43:47.931Z,-6.56
2023-01-10T20:46:28.685Z,-6.56
2023-01-10T20:48:56.971Z,-6.57
2023-01-10T20:51:27.264Z,-6.59
2023-01-10T20:53:54.122Z,-6.63
2023-01-10T20:56:23.367Z,-6.64
2023-01-10T20:58:51.186Z,-6.66
2023-01-10T21:01:28.628Z,-6.73
2023-01-10T21:04:00.327Z,-6.73
2023-01-10T21:06:27.212Z,-6.90
2023-01-10T21:08:54.017Z,-6.82
2023-01-10T21:11:21.124Z,-6.86
2023-01-10T21:13:48.274Z,-6.91
2023-01-10T21:16:18.251Z,-6.93
2023-01-10T21:18:45.756Z,-6.93
2023-01-10T21:21:15.316Z,-7.03
2023-01-10T21:23:42.577Z,-6.96
2023-01-10T21:26:12.447Z,-6.96
2023-01-10T21:28:42.458Z,-7.04
2023-01-10T21:31:10.707Z,-6.96
2023-01-10T21:33:37.508Z,-7.00
2023-01-10T21:36:05.079Z,-7.01
2023-01-10T21:38:33.138Z,-7.03
2023-01-10T21:41:14.074Z,-7.07
2023-01-10T21:43:45.303Z,-7.08
2023-01-10T21:46:12.409Z,-7.12
2023-01-10T21:48:39.276Z,-7.19
2023-01-10T21:51:06.331Z,-7.13
2023-01-10T21:53:33.030Z,-7.14
2023-01-10T21:56:00.021Z,-7.14
2023-01-10T21:58:27.524Z,-7.13
2023-01-10T22:00:56.877Z,-7.23
2023-01-10T22:03:24.089Z,-7.10
2023-01-10T22:05:51.015Z,-7.10
2023-01-10T22:08:17.701Z,-7.10
2023-01-10T22:10:44.656Z,-7.12
2023-01-10T22:13:11.386Z,-7.15
2023-01-10T22:15:38.048Z,-7.13
2023-01-10T22:18:05.077Z,-7.12
2023-01-10T22:20:31.814Z,-7.08
2023-01-10T22:22:58.568Z,-7.06
2023-01-10T22:25:25.830Z,-7.06
2023-01-10T22:27:53.430Z,-7.06
2023-01-10T22:30:20.108Z,-7.06
2023-01-10T22:32:47.054Z,-7.06
2023-01-10T22:35:14.731Z,-7.05
2023-01-10T22:37:41.512Z,-7.06
2023-01-10T22:40:09.397Z,-7.06
2023-01-10T22:42:36.051Z,-7.08
2023-01-10T22:45:02.775Z,-7.09
2023-01-10T22:47:29.735Z,-7.21
2023-01-10T22:49:56.629Z,-7.10
2023-01-10T22:52:23.464Z,-7.12
2023-01-10T22:54:50.427Z,-7.08
2023-01-10T22:57:17.032Z,-7.20
2023-01-10T22:59:43.679Z,-7.10
2023-01-10T23:02:10.672Z,-7.08
2023-01-10T23:04:37.445Z,-7.05
2023-01-10T23:07:04.081Z,-7.06
2023-01-10T23:09:30.997Z,-7.05
2023-01-10T23:11:57.682Z,-7.05
2023-01-10T23:14:24.314Z,-7.02
2023-01-10T23:16:51.283Z,-7.09
2023-01-10T23:19:17.991Z,-7.09
2023-01-10T23:21:44.611Z,-7.05
2023-01-10T23:24:13.874Z,-7.08
2023-01-10T23:26:40.636Z,-7.13
2023-01-10T23:29:07.439Z,-7.13
2023-01-10T23:31:34.488Z,-7.15
2023-01-10T23:34:01.206Z,-7.19
2023-01-10T23:36:27.799Z,-7.33
2023-01-10T23:38:55.186Z,-7.27
2023-01-10T23:41:22.322Z,-7.29
2023-01-10T23:43:49.726Z,-7.31
2023-01-10T23:46:16.798Z,-7.31
2023-01-10T23:48:46.077Z,-7.41
2023-01-10T23:51:13.713Z,-7.28
2023-01-10T23:53:41.022Z,-7.25
2023-01-10T23:56:14.111Z,-7.27
2023-01-10T23:58:41.565Z,-7.28
